createdAt,value
2019-01-28T00:00:43.219Z,9.20
2019-01-28T00:03:15.265Z,8.20
2019-01-28T00:05:47.357Z,9.00
2019-01-28T00:08:19.421Z,9.40
2019-01-28T00:10:51.623Z,7.00
2019-01-28T00:13:23.856Z,9.20
2019-01-28T00:15:56.133Z,11.00
2019-01-28T00:18:28.099Z,14.00
2019-01-28T00:21:00.100Z,15.40
2019-01-28T00:23:32.075Z,13.20
2019-01-28T00:26:04.087Z,17.60
2019-01-28T00:28:36.606Z,17.60
2019-01-28T00:31:08.669Z,19.40
2019-01-28T00:33:40.633Z,18.00
2019-01-28T00:36:12.639Z,20.20
2019-01-28T00:38:44.646Z,21.80
2019-01-28T00:41:16.901Z,26.20
2019-01-28T00:43:48.987Z,28.80
2019-01-28T00:46:21.211Z,29.80
2019-01-28T00:48:53.218Z,29.75
2019-01-28T00:51:26.060Z,29.75
2019-01-28T00:53:59.052Z,31.75
2019-01-28T00:56:31.059Z,31.25
2019-01-28T00:59:03.394Z,31.50
2019-01-28T01:01:35.575Z,31.75
2019-01-28T01:04:07.632Z,31.50
2019-01-28T01:06:41.833Z,32.25
2019-01-28T01:09:13.811Z,30.75
2019-01-28T01:11:45.802Z,31.25
2019-01-28T01:14:17.897Z,31.75
2019-01-28T01:16:50.070Z,31.75
2019-01-28T01:19:23.156Z,30.25
2019-01-28T01:21:55.172Z,31.00
2019-01-28T01:24:27.150Z,29.50
2019-01-28T01:26:59.145Z,29.50
2019-01-28T01:29:31.212Z,31.25
2019-01-28T01:32:03.222Z,30.50
2019-01-28T01:34:37.322Z,28.20
2019-01-28T01:37:09.453Z,29.20
2019-01-28T01:39:41.430Z,28.50
2019-01-28T01:42:13.428Z,29.75
2019-01-28T01:44:45.457Z,28.20
2019-01-28T01:47:17.644Z,28.20
2019-01-28T01:49:49.606Z,28.20
2019-01-28T01:52:21.613Z,27.80
2019-01-28T01:54:53.588Z,27.80
2019-01-28T01:57:25.610Z,27.40
2019-01-28T01:59:57.939Z,28.60
2019-01-28T02:02:33.517Z,26.60
2019-01-28T02:05:03.825Z,26.00
2019-01-28T02:07:35.970Z,26.60
2019-01-28T02:10:13.058Z,28.20
2019-01-28T02:12:45.073Z,27.60
2019-01-28T02:15:18.429Z,26.80
2019-01-28T02:17:50.622Z,26.60
2019-01-28T02:20:22.584Z,25.40
2019-01-28T02:22:54.600Z,25.80
2019-01-28T02:25:26.559Z,23.60
2019-01-28T02:27:58.525Z,25.60
2019-01-28T02:30:30.500Z,23.80
2019-01-28T02:33:02.509Z,26.00
2019-01-28T02:35:34.494Z,23.60
2019-01-28T02:38:06.505Z,24.60
2019-01-28T02:40:38.535Z,24.60
2019-01-28T02:43:10.507Z,23.00
2019-01-28T02:45:42.461Z,24.20
2019-01-28T02:48:14.630Z,23.60
2019-01-28T02:50:46.614Z,23.60
2019-01-28T02:53:18.594Z,22.60
2019-01-28T02:55:50.559Z,22.80
2019-01-28T02:58:22.643Z,22.60
2019-01-28T03:00:54.981Z,22.40
2019-01-28T03:03:27.127Z,22.60
2019-01-28T03:05:59.095Z,22.60
2019-01-28T03:08:31.122Z,23.00
2019-01-28T03:11:03.070Z,23.20
2019-01-28T03:13:35.062Z,23.00
2019-01-28T03:16:07.044Z,22.20
2019-01-28T03:18:39.218Z,22.80
2019-01-28T03:21:11.253Z,20.60
2019-01-28T03:23:43.249Z,20.40
2019-01-28T03:26:15.690Z,22.00
2019-01-28T03:28:47.687Z,21.80
2019-01-28T03:31:19.652Z,20.40
2019-01-28T03:33:51.653Z,21.60
2019-01-28T03:36:24.456Z,20.20
2019-01-28T03:38:56.459Z,20.40
2019-01-28T03:41:28.772Z,19.40
2019-01-28T03:44:00.790Z,20.20
2019-01-28T03:46:32.851Z,21.80
2019-01-28T03:49:04.853Z,20.40
2019-01-28T03:51:36.920Z,19.00
2019-01-28T03:54:08.901Z,20.80
2019-01-28T03:56:40.868Z,20.20
2019-01-28T03:59:12.893Z,20.80
2019-01-28T04:01:45.219Z,20.60
2019-01-28T04:04:17.781Z,19.20
2019-01-28T04:06:49.754Z,20.20
2019-01-28T04:09:21.739Z,21.00
2019-01-28T04:11:53.707Z,21.20
2019-01-28T04:14:25.891Z,20.20
2019-01-28T04:16:57.836Z,18.80
2019-01-28T04:19:29.936Z,19.40
2019-01-28T04:22:01.904Z,18.60
2019-01-28T04:24:33.955Z,20.20
2019-01-28T04:27:05.996Z,19.00
2019-01-28T04:29:37.978Z,19.40
2019-01-28T04:32:09.946Z,20.20
2019-01-28T04:34:41.947Z,18.80
2019-01-28T04:37:13.917Z,20.20
2019-01-28T04:39:45.913Z,18.40
2019-01-28T04:42:17.985Z,20.20
2019-01-28T04:44:50.165Z,17.40
2019-01-28T04:47:22.120Z,18.20
2019-01-28T04:49:54.092Z,18.20
2019-01-28T04:52:26.045Z,18.00
2019-01-28T04:54:58.016Z,16.60
2019-01-28T04:57:30.194Z,7.00
2019-01-28T05:00:02.162Z,15.40
2019-01-28T05:02:35.850Z,14.60
2019-01-28T05:05:08.511Z,15.80
2019-01-28T05:07:40.451Z,16.20
2019-01-28T05:10:14.734Z,14.60
2019-01-28T05:12:47.055Z,14.00
2019-01-28T05:15:20.149Z,14.40
2019-01-28T05:17:52.221Z,12.80
2019-01-28T05:20:24.612Z,13.20
2019-01-28T05:22:56.899Z,13.00
2019-01-28T05:25:28.883Z,15.60
2019-01-28T05:28:00.827Z,13.40
2019-01-28T05:30:32.848Z,18.00
2019-01-28T05:33:04.809Z,19.40
2019-01-28T05:35:36.791Z,22.00
2019-01-28T05:38:08.777Z,23.00
2019-01-28T05:40:40.753Z,24.60
2019-01-28T05:43:12.701Z,27.40
2019-01-28T05:45:44.846Z,30.00
2019-01-28T05:48:16.788Z,37.00
2019-01-28T05:50:48.761Z,37.25
2019-01-28T05:53:20.699Z,37.25
2019-01-28T05:55:52.669Z,40.00
2019-01-28T05:58:24.630Z,36.00
2019-01-28T06:00:56.594Z,36.50
2019-01-28T06:12:56.395Z,33.50
2019-01-28T06:15:28.557Z,33.00
2019-01-28T06:18:00.582Z,31.50
2019-01-28T06:20:32.550Z,27.40
2019-01-28T06:23:04.561Z,22.80
2019-01-28T06:25:36.638Z,25.40
2019-01-28T06:28:08.692Z,23.00
2019-01-28T06:30:40.733Z,23.20
2019-01-28T06:33:12.756Z,24.60
2019-01-28T06:35:44.732Z,25.40
2019-01-28T06:38:16.767Z,26.20
2019-01-28T06:40:49.233Z,26.20
2019-01-28T06:43:21.244Z,25.80
2019-01-28T06:45:53.402Z,25.20
2019-01-28T06:48:25.356Z,25.80
2019-01-28T06:50:57.524Z,24.20
2019-01-28T06:53:29.529Z,23.40
2019-01-28T06:56:01.541Z,24.20
2019-01-28T06:58:33.529Z,25.20
2019-01-28T07:01:05.562Z,23.40
2019-01-28T07:03:37.643Z,24.40
2019-01-28T07:06:09.626Z,24.60
2019-01-28T07:08:41.694Z,23.20
2019-01-28T07:11:13.714Z,22.80
2019-01-28T07:13:47.371Z,22.60
2019-01-28T07:16:19.622Z,22.20
2019-01-28T07:18:51.642Z,22.80
2019-01-28T07:21:23.664Z,23.80
2019-01-28T07:23:55.659Z,22.60
2019-01-28T07:26:27.696Z,22.00
2019-01-28T07:28:59.711Z,22.20
2019-01-28T07:31:31.801Z,22.40
2019-01-28T07:34:03.809Z,24.60
2019-01-28T07:36:35.831Z,22.20
2019-01-28T07:39:08.678Z,21.80
2019-01-28T07:41:40.693Z,21.80
2019-01-28T07:44:12.676Z,22.20
2019-01-28T07:46:44.805Z,23.20
2019-01-28T07:49:16.833Z,21.20
2019-01-28T07:51:48.814Z,22.20
2019-01-28T07:54:20.819Z,20.40
2019-01-28T07:56:52.805Z,22.20
2019-01-28T07:59:24.786Z,21.20
2019-01-28T08:01:56.765Z,21.20
2019-01-28T08:04:29.755Z,20.20
2019-01-28T08:07:01.713Z,20.80
2019-01-28T08:09:33.682Z,22.60
2019-01-28T08:12:05.636Z,20.80
2019-01-28T08:14:37.987Z,20.40
2019-01-28T08:17:10.121Z,20.40
2019-01-28T08:19:42.151Z,21.20
2019-01-28T08:22:14.121Z,20.80
2019-01-28T08:24:46.120Z,17.80
2019-01-28T08:27:18.093Z,20.40
2019-01-28T08:29:50.087Z,19.60
2019-01-28T08:32:22.054Z,20.20
2019-01-28T08:34:54.038Z,15.60
2019-01-28T08:37:25.992Z,20.20
2019-01-28T08:39:57.959Z,18.80
2019-01-28T08:42:29.905Z,18.40
2019-01-28T08:45:01.911Z,16.80
2019-01-28T08:47:35.127Z,20.20
2019-01-28T08:50:09.853Z,18.00
2019-01-28T08:52:42.071Z,18.20
2019-01-28T08:55:19.309Z,19.40
2019-01-28T08:57:51.303Z,16.80
2019-01-28T09:00:29.978Z,19.20
2019-01-28T09:03:02.520Z,16.80
2019-01-28T09:05:34.531Z,17.80
2019-01-28T09:08:06.793Z,18.20
2019-01-28T09:10:38.754Z,19.60
2019-01-28T09:13:10.825Z,17.40
2019-01-28T09:15:43.185Z,16.00
2019-01-28T09:18:15.308Z,16.60
2019-01-28T09:20:47.298Z,19.20
2019-01-28T09:23:19.608Z,18.40
2019-01-28T09:25:51.617Z,16.60
2019-01-28T09:28:23.603Z,17.80
2019-01-28T09:30:55.604Z,16.20
2019-01-28T09:33:27.555Z,16.20
2019-01-28T09:35:59.966Z,13.20
2019-01-28T09:38:31.939Z,14.20
2019-01-28T09:41:03.939Z,17.00
2019-01-28T09:43:35.889Z,14.80
2019-01-28T09:46:09.247Z,15.20
2019-01-28T09:48:41.497Z,15.40
2019-01-28T09:51:13.873Z,16.80
2019-01-28T09:53:45.818Z,14.20
2019-01-28T09:56:17.817Z,19.20
2019-01-28T09:58:49.788Z,13.60
2019-01-28T10:01:21.798Z,14.20
2019-01-28T10:03:53.752Z,13.40
2019-01-28T10:06:25.746Z,14.80
2019-01-28T10:09:32.245Z,13.20
2019-01-28T10:12:04.323Z,12.20
2019-01-28T10:14:36.297Z,13.00
2019-01-28T10:17:08.956Z,14.40
2019-01-28T10:19:41.137Z,13.40
2019-01-28T10:22:13.118Z,13.00
2019-01-28T10:24:45.096Z,12.80
2019-01-28T10:27:33.777Z,12.40
2019-01-28T10:30:08.285Z,12.40
2019-01-28T10:32:40.256Z,13.00
2019-01-28T10:35:12.189Z,13.00
2019-01-28T10:37:44.193Z,13.20
2019-01-28T10:40:27.727Z,11.60
2019-01-28T10:42:59.823Z,11.40
2019-01-28T10:45:31.770Z,11.40
2019-01-28T10:48:03.848Z,12.20
2019-01-28T10:50:36.264Z,9.20
2019-01-28T10:53:08.286Z,10.80
2019-01-28T10:55:40.227Z,10.00
2019-01-28T10:58:12.189Z,10.20
2019-01-28T11:00:46.528Z,7.80
2019-01-28T11:03:19.373Z,7.00
2019-01-28T11:05:51.744Z,7.00
2019-01-28T11:08:23.894Z,8.20
2019-01-28T11:10:56.108Z,8.20
2019-01-28T11:13:28.178Z,8.20
2019-01-28T11:16:00.695Z,8.80
2019-01-28T11:18:33.120Z,9.40
2019-01-28T11:21:05.878Z,7.40
2019-01-28T11:23:38.350Z,7.20
2019-01-28T11:26:10.549Z,8.20
2019-01-28T11:28:44.678Z,9.20
2019-01-28T11:31:16.863Z,7.20
2019-01-28T11:33:49.107Z,7.40
2019-01-28T11:36:21.444Z,7.20
2019-01-28T11:38:53.688Z,7.00
2019-01-28T11:41:26.006Z,8.60
2019-01-28T11:43:58.415Z,7.40
2019-01-28T11:46:30.887Z,8.60
2019-01-28T11:49:05.887Z,8.60
2019-01-28T11:51:36.830Z,7.40
2019-01-28T11:54:09.968Z,7.40
2019-01-28T11:56:42.031Z,8.80
2019-01-28T11:59:15.142Z,6.60
2019-01-28T12:01:47.441Z,7.60
2019-01-28T12:04:19.582Z,7.60
2019-01-28T12:06:51.743Z,6.80
2019-01-28T12:09:23.694Z,7.80
2019-01-28T12:11:55.964Z,8.00
2019-01-28T12:14:28.117Z,7.40
2019-01-28T12:17:00.270Z,6.20
2019-01-28T12:19:32.765Z,6.40
2019-01-28T12:22:05.131Z,7.20
2019-01-28T12:24:37.364Z,6.60
2019-01-28T12:27:09.529Z,6.80
2019-01-28T12:29:42.719Z,7.00
2019-01-28T12:32:14.958Z,6.00
2019-01-28T12:34:47.118Z,3.40
2019-01-28T12:37:19.290Z,5.40
2019-01-28T12:39:51.426Z,5.40
2019-01-28T12:42:23.632Z,5.60
2019-01-28T12:44:55.854Z,5.60
2019-01-28T12:47:28.016Z,4.00
2019-01-28T12:50:00.245Z,6.00
2019-01-28T12:52:32.893Z,5.00
2019-01-28T12:55:05.378Z,3.80
2019-01-28T12:57:37.551Z,3.60
2019-01-28T13:00:12.499Z,5.00
2019-01-28T13:02:45.009Z,6.40
2019-01-28T13:05:19.438Z,5.00
2019-01-28T13:07:51.592Z,5.00
2019-01-28T13:10:25.154Z,4.40
2019-01-28T13:12:57.482Z,5.00
2019-01-28T13:15:33.902Z,5.00
2019-01-28T13:18:06.074Z,4.20
2019-01-28T13:20:38.228Z,5.60
2019-01-28T13:23:10.521Z,4.20
2019-01-28T13:25:43.057Z,4.00
2019-01-28T13:28:15.222Z,3.60
2019-01-28T13:30:47.371Z,6.00
2019-01-28T13:33:19.535Z,3.00
2019-01-28T13:35:52.286Z,3.40
2019-01-28T13:38:24.451Z,5.60
2019-01-28T13:40:56.632Z,4.20
2019-01-28T13:43:28.870Z,3.40
2019-01-28T13:46:01.114Z,3.80
2019-01-28T13:48:33.344Z,5.00
2019-01-28T13:51:06.458Z,4.00
2019-01-28T13:53:39.029Z,4.40
2019-01-28T13:56:11.178Z,4.40
2019-01-28T13:58:43.338Z,4.80
2019-01-28T14:01:15.449Z,3.60
2019-01-28T14:03:47.681Z,4.20
2019-01-28T14:06:19.798Z,3.00
2019-01-28T14:08:52.118Z,4.00
2019-01-28T14:11:24.253Z,4.00
2019-01-28T14:13:56.566Z,4.60
2019-01-28T14:16:28.891Z,3.40
2019-01-28T14:19:01.049Z,3.00
2019-01-28T14:21:33.166Z,4.00
2019-01-28T14:24:05.632Z,3.40
2019-01-28T14:26:37.773Z,1.20
2019-01-28T14:29:09.904Z,3.00
2019-01-28T14:31:42.198Z,3.00
2019-01-28T14:34:14.343Z,2.00
2019-01-28T14:36:46.470Z,3.80
2019-01-28T14:39:18.632Z,3.00
2019-01-28T14:41:50.744Z,3.20
2019-01-28T14:44:22.871Z,3.80
2019-01-28T14:46:55.022Z,4.00
2019-01-28T14:49:32.220Z,3.00
2019-01-28T14:52:00.935Z,3.40
2019-01-28T14:54:33.278Z,3.00
2019-01-28T14:57:05.407Z,2.80
2019-01-28T14:59:37.614Z,3.00
2019-01-28T15:02:09.855Z,4.00
2019-01-28T15:04:42.227Z,3.20
2019-01-28T15:07:14.371Z,3.40
2019-01-28T15:09:46.530Z,3.40
2019-01-28T15:12:18.666Z,4.00
2019-01-28T15:14:51.478Z,3.80
2019-01-28T15:17:23.626Z,4.00
2019-01-28T15:20:02.308Z,4.00
2019-01-28T15:22:29.751Z,6.40
2019-01-28T15:25:02.081Z,7.20
2019-01-28T15:27:34.303Z,8.40
2019-01-28T15:30:11.747Z,8.60
2019-01-28T15:32:44.241Z,10.00
2019-01-28T15:35:16.375Z,12.40
2019-01-28T15:37:48.316Z,11.20
2019-01-28T15:40:25.676Z,11.00
2019-01-28T15:42:57.629Z,11.20
2019-01-28T15:45:32.230Z,10.00
2019-01-28T15:48:04.182Z,11.20
2019-01-28T15:50:36.165Z,10.00
2019-01-28T15:53:08.218Z,11.20
2019-01-28T15:55:41.372Z,16.60
2019-01-28T15:58:13.302Z,20.60
2019-01-28T16:00:45.631Z,25.60
2019-01-28T16:03:17.590Z,28.20
2019-01-28T16:05:49.582Z,30.00
2019-01-28T16:08:21.504Z,31.25
2019-01-28T16:10:53.516Z,33.25
2019-01-28T16:13:26.003Z,35.50
2019-01-28T16:15:58.147Z,38.25
2019-01-28T16:18:34.484Z,39.25
2019-01-28T16:21:04.248Z,42.75
2019-01-28T16:23:36.571Z,45.50
2019-01-28T16:26:08.706Z,46.00
2019-01-28T16:28:40.995Z,49.50
2019-01-28T16:31:12.968Z,51.00
2019-01-28T16:33:44.919Z,49.25
2019-01-28T16:36:16.901Z,50.75
2019-01-28T16:38:48.871Z,49.00
2019-01-28T16:41:20.874Z,48.50
2019-01-28T16:43:52.922Z,51.50
2019-01-28T16:46:24.868Z,48.25
2019-01-28T16:48:57.214Z,46.75
2019-01-28T16:51:29.183Z,47.25
2019-01-28T16:54:01.135Z,44.25
2019-01-28T16:56:33.255Z,44.75
2019-01-28T16:59:05.181Z,42.50
2019-01-28T17:01:37.173Z,43.25
2019-01-28T17:04:09.225Z,41.00
2019-01-28T17:06:41.588Z,42.00
2019-01-28T17:09:13.553Z,46.00
2019-01-28T17:11:45.519Z,43.00
2019-01-28T17:14:17.469Z,41.00
2019-01-28T17:16:49.610Z,36.00
2019-01-28T17:19:21.788Z,38.00
2019-01-28T17:21:53.868Z,38.00
2019-01-28T17:24:26.133Z,40.25
2019-01-28T17:26:58.296Z,36.25
2019-01-28T17:29:30.281Z,38.50
2019-01-28T17:32:02.239Z,39.00
2019-01-28T17:34:34.170Z,37.75
2019-01-28T17:37:06.138Z,35.50
2019-01-28T17:39:38.071Z,35.75
2019-01-28T17:42:10.240Z,36.50
2019-01-28T17:44:42.162Z,36.25
2019-01-28T17:47:14.113Z,35.00
2019-01-28T17:49:46.034Z,36.75
2019-01-28T17:52:18.013Z,33.75
2019-01-28T17:54:49.943Z,35.50
2019-01-28T17:57:22.567Z,34.00
2019-01-28T17:59:54.486Z,34.50
2019-01-28T18:02:26.441Z,34.25
2019-01-28T18:04:58.355Z,33.50
2019-01-28T18:07:30.326Z,34.00
2019-01-28T18:10:02.286Z,34.25
2019-01-28T18:12:35.548Z,31.50
2019-01-28T18:15:10.223Z,33.00
2019-01-28T18:17:42.549Z,32.75
2019-01-28T18:20:16.496Z,33.25
2019-01-28T18:22:48.657Z,31.50
2019-01-28T18:25:32.118Z,32.50
2019-01-28T18:28:04.244Z,31.00
2019-01-28T18:30:38.549Z,31.50
2019-01-28T18:33:10.606Z,33.00
2019-01-28T18:35:42.783Z,31.50
2019-01-28T18:38:14.893Z,30.75
2019-01-28T18:40:47.218Z,31.50
2019-01-28T18:43:19.211Z,32.50
2019-01-28T18:45:51.154Z,30.50
2019-01-28T18:48:23.202Z,30.00
2019-01-28T18:50:59.587Z,30.75
2019-01-28T18:53:29.214Z,30.50
2019-01-28T18:56:01.168Z,29.75
2019-01-28T18:58:33.493Z,29.25
2019-01-28T19:01:05.911Z,29.50
2019-01-28T19:03:38.157Z,29.50
2019-01-28T19:09:09.617Z,28.25
2019-01-28T19:11:49.183Z,29.00
2019-01-28T19:14:28.329Z,27.75
2019-01-28T19:17:04.432Z,28.75
2019-01-28T19:19:38.071Z,27.50
2019-01-28T19:22:10.380Z,28.50
2019-01-28T19:24:42.365Z,28.50
2019-01-28T19:27:14.681Z,28.25
2019-01-28T19:29:46.911Z,27.00
2019-01-28T19:32:18.860Z,28.25
2019-01-28T19:34:50.958Z,28.25
2019-01-28T19:37:23.030Z,28.50
2019-01-28T19:39:55.033Z,28.25
2019-01-28T19:42:27.020Z,27.00
2019-01-28T19:44:58.997Z,27.50
2019-01-28T19:47:31.047Z,27.50
2019-01-28T19:50:03.115Z,26.75
2019-01-28T19:52:36.169Z,28.20
2019-01-28T19:55:10.625Z,27.50
2019-01-28T19:57:43.944Z,28.50
2019-01-28T20:00:21.543Z,28.00
2019-01-28T20:02:55.280Z,27.20
2019-01-28T20:05:27.343Z,28.00
2019-01-28T20:07:59.324Z,28.25
2019-01-28T20:10:31.318Z,28.25
2019-01-28T20:13:03.390Z,27.80
2019-01-28T20:15:35.371Z,27.50
2019-01-28T20:18:07.439Z,25.00
2019-01-28T20:20:39.708Z,28.20
2019-01-28T20:23:11.871Z,26.80
2019-01-28T20:25:43.987Z,25.50
2019-01-28T20:28:16.100Z,26.80
2019-01-28T20:30:48.375Z,26.60
2019-01-28T20:33:20.419Z,23.20
2019-01-28T20:35:52.464Z,26.20
2019-01-28T20:38:24.752Z,26.20
2019-01-28T20:40:57.039Z,26.00
2019-01-28T20:43:29.014Z,26.80
2019-01-28T20:46:01.448Z,25.60
2019-01-28T20:48:33.997Z,26.00
2019-01-28T20:51:06.187Z,24.40
2019-01-28T20:53:38.281Z,27.40
2019-01-28T20:56:10.284Z,25.60
2019-01-28T20:58:42.331Z,24.20
2019-01-28T21:01:14.607Z,25.20
2019-01-28T21:03:48.061Z,25.40
2019-01-28T21:06:20.257Z,25.40
2019-01-28T21:08:52.402Z,23.40
2019-01-28T21:11:24.466Z,24.20
2019-01-28T21:13:56.487Z,24.20
2019-01-28T21:16:28.510Z,26.80
2019-01-28T21:19:00.523Z,24.40
2019-01-28T21:21:41.478Z,23.80
2019-01-28T21:24:06.508Z,24.60
2019-01-28T21:26:38.925Z,18.00
2019-01-28T21:29:11.046Z,24.20
2019-01-28T21:31:43.331Z,24.00
2019-01-28T21:34:15.325Z,24.60
2019-01-28T21:36:48.758Z,23.20
2019-01-28T21:39:20.803Z,24.20
2019-01-28T21:41:53.448Z,22.20
2019-01-28T21:44:25.965Z,24.80
2019-01-28T21:46:58.658Z,24.00
2019-01-28T21:49:30.676Z,22.60
2019-01-28T21:52:02.710Z,22.40
2019-01-28T21:54:34.754Z,24.00
2019-01-28T21:57:07.209Z,22.40
2019-01-28T21:59:39.208Z,22.40
2019-01-28T22:02:11.521Z,21.80
2019-01-28T22:04:43.468Z,23.40
2019-01-28T22:07:15.459Z,24.20
2019-01-28T22:09:47.418Z,21.20
2019-01-28T22:12:19.434Z,22.60
2019-01-28T22:14:51.440Z,22.20
2019-01-28T22:17:23.486Z,20.20
2019-01-28T22:19:55.424Z,22.20
2019-01-28T22:22:27.618Z,23.00
2019-01-28T22:24:59.576Z,21.80
2019-01-28T22:27:31.649Z,22.80
2019-01-28T22:30:03.633Z,22.20
2019-01-28T22:32:35.836Z,22.20
2019-01-28T22:35:09.531Z,22.20
2019-01-28T22:37:41.558Z,22.40
2019-01-28T22:40:15.124Z,22.20
2019-01-28T22:42:47.153Z,22.40
2019-01-28T22:45:20.147Z,21.00
2019-01-28T22:47:52.159Z,20.80
2019-01-28T22:50:24.186Z,21.60
2019-01-28T22:52:56.210Z,20.20
2019-01-28T22:55:28.224Z,20.40
2019-01-28T22:58:00.286Z,20.80
2019-01-28T23:00:50.452Z,20.80
2019-01-28T23:03:24.927Z,21.00
2019-01-28T23:05:56.924Z,21.80
2019-01-28T23:08:28.917Z,19.60
2019-01-28T23:11:00.922Z,20.60
2019-01-28T23:13:32.980Z,19.60
2019-01-28T23:16:04.941Z,20.60
2019-01-28T23:18:37.569Z,20.20
2019-01-28T23:21:09.584Z,20.20
2019-01-28T23:23:42.465Z,21.20
2019-01-28T23:26:14.559Z,21.20
2019-01-28T23:28:46.631Z,16.20
2019-01-28T23:31:19.057Z,20.40
2019-01-28T23:33:51.612Z,20.00
2019-01-28T23:36:23.617Z,19.80
2019-01-28T23:38:55.746Z,20.00
2019-01-28T23:41:27.751Z,19.20
2019-01-28T23:43:59.789Z,20.40
2019-01-28T23:46:31.763Z,20.20
2019-01-28T23:49:03.799Z,19.60
2019-01-28T23:51:35.787Z,19.20
2019-01-28T23:54:07.834Z,18.80
2019-01-28T23:56:39.812Z,18.00
2019-01-28T23:59:11.851Z,20.20
